sensor_id;sensor_type;location;lat;lon;timestamp;P1;durP1;ratioP1;P2;durP2;ratioP2
787;SDS011;16074;42.708;23.312;2023-04-24T00:02:00;9.30;;;8.45;;
787;SDS011;16074;42.708;23.312;2023-04-24T00:04:30;8.80;;;7.90;;
787;SDS011;16074;42.708;23.312;2023-04-24T00:06:58;10.65;;;8.13;;
787;SDS011;16074;42.708;23.312;2023-04-24T00:09:26;10.25;;;8.07;;
787;SDS011;16074;42.708;23.312;2023-04-24T00:11:55;9.32;;;8.20;;
787;SDS011;16074;42.708;23.312;2023-04-24T00:14:25;8.90;;;7.85;;
787;SDS011;16074;42.708;23.312;2023-04-24T00:16:53;8.07;;;7.43;;
787;SDS011;16074;42.708;23.312;2023-04-24T00:19:22;10.88;;;8.60;;
787;SDS011;16074;42.708;23.312;2023-04-24T00:21:50;9.25;;;8.35;;
787;SDS011;16074;42.708;23.312;2023-04-24T00:24:19;7.72;;;7.13;;
787;SDS011;16074;42.708;23.312;2023-04-24T00:26:48;10.25;;;8.02;;
787;SDS011;16074;42.708;23.312;2023-04-24T00:29:16;9.15;;;8.25;;
787;SDS011;16074;42.708;23.312;2023-04-24T00:31:46;7.88;;;6.97;;
787;SDS011;16074;42.708;23.312;2023-04-24T00:34:14;8.35;;;7.65;;
787;SDS011;16074;42.708;23.312;2023-04-24T00:36:43;9.55;;;8.55;;
787;SDS011;16074;42.708;23.312;2023-04-24T00:39:11;7.82;;;7.20;;
787;SDS011;16074;42.708;23.312;2023-04-24T00:41:39;8.20;;;7.38;;
787;SDS011;16074;42.708;23.312;2023-04-24T00:44:08;9.18;;;8.27;;
787;SDS011;16074;42.708;23.312;2023-04-24T00:46:36;9.00;;;7.70;;
787;SDS011;16074;42.708;23.312;2023-04-24T00:49:07;8.77;;;7.63;;
787;SDS011;16074;42.708;23.312;2023-04-24T00:51:35;8.25;;;7.45;;
787;SDS011;16074;42.708;23.312;2023-04-24T00:54:04;7.80;;;7.10;;
787;SDS011;16074;42.708;23.312;2023-04-24T00:56:32;7.25;;;6.65;;
787;SDS011;16074;42.708;23.312;2023-04-24T00:59:00;7.43;;;6.68;;
787;SDS011;16074;42.708;23.312;2023-04-24T01:01:29;8.30;;;7.60;;
787;SDS011;16074;42.708;23.312;2023-04-24T01:03:59;8.65;;;7.95;;
787;SDS011;16074;42.708;23.312;2023-04-24T01:06:29;9.15;;;8.35;;
787;SDS011;16074;42.708;23.312;2023-04-24T01:08:58;7.95;;;7.35;;
787;SDS011;16074;42.708;23.312;2023-04-24T01:11:29;9.00;;;8.30;;
787;SDS011;16074;42.708;23.312;2023-04-24T01:13:57;8.23;;;7.47;;
787;SDS011;16074;42.708;23.312;2023-04-24T01:16:26;8.52;;;7.82;;
787;SDS011;16074;42.708;23.312;2023-04-24T01:18:55;10.00;;;9.20;;
787;SDS011;16074;42.708;23.312;2023-04-24T01:21:23;13.82;;;9.75;;
787;SDS011;16074;42.708;23.312;2023-04-24T01:23:57;10.25;;;9.23;;
787;SDS011;16074;42.708;23.312;2023-04-24T01:26:25;11.23;;;9.45;;
787;SDS011;16074;42.708;23.312;2023-04-24T01:28:54;10.98;;;9.73;;
787;SDS011;16074;42.708;23.312;2023-04-24T01:31:22;10.35;;;9.27;;
787;SDS011;16074;42.708;23.312;2023-04-24T01:33:51;10.05;;;9.23;;
787;SDS011;16074;42.708;23.312;2023-04-24T01:36:20;9.63;;;8.73;;
787;SDS011;16074;42.708;23.312;2023-04-24T01:38:52;10.35;;;9.45;;
787;SDS011;16074;42.708;23.312;2023-04-24T01:41:22;9.55;;;8.55;;
787;SDS011;16074;42.708;23.312;2023-04-24T01:43:51;10.13;;;9.23;;
787;SDS011;16074;42.708;23.312;2023-04-24T01:46:19;9.65;;;8.65;;
787;SDS011;16074;42.708;23.312;2023-04-24T01:48:48;11.18;;;10.07;;
787;SDS011;16074;42.708;23.312;2023-04-24T01:51:18;10.13;;;9.32;;
787;SDS011;16074;42.708;23.312;2023-04-24T01:53:47;11.20;;;9.30;;
787;SDS011;16074;42.708;23.312;2023-04-24T01:56:15;10.70;;;9.70;;
787;SDS011;16074;42.708;23.312;2023-04-24T01:58:44;9.52;;;8.82;;
787;SDS011;16074;42.708;23.312;2023-04-24T02:01:14;10.73;;;9.85;;
787;SDS011;16074;42.708;23.312;2023-04-24T02:03:47;11.32;;;10.38;;
787;SDS011;16074;42.708;23.312;2023-04-24T02:06:15;9.98;;;9.07;;
787;SDS011;16074;42.708;23.312;2023-04-24T02:08:43;12.40;;;10.48;;
787;SDS011;16074;42.708;23.312;2023-04-24T02:11:12;11.75;;;10.27;;
787;SDS011;16074;42.708;23.312;2023-04-24T02:13:40;9.40;;;8.68;;
787;SDS011;16074;42.708;23.312;2023-04-24T02:16:09;10.77;;;9.77;;
787;SDS011;16074;42.708;23.312;2023-04-24T02:18:38;10.85;;;9.98;;
787;SDS011;16074;42.708;23.312;2023-04-24T02:21:06;9.38;;;8.48;;
787;SDS011;16074;42.708;23.312;2023-04-24T02:23:34;10.70;;;9.75;;
787;SDS011;16074;42.708;23.312;2023-04-24T02:26:04;10.93;;;9.88;;
787;SDS011;16074;42.708;23.312;2023-04-24T02:28:32;10.73;;;9.82;;
787;SDS011;16074;42.708;23.312;2023-04-24T02:31:00;10.50;;;9.40;;
787;SDS011;16074;42.708;23.312;2023-04-24T02:33:30;9.98;;;9.02;;
787;SDS011;16074;42.708;23.312;2023-04-24T02:35:58;11.27;;;9.30;;
787;SDS011;16074;42.708;23.312;2023-04-24T02:38:27;10.00;;;9.00;;
787;SDS011;16074;42.708;23.312;2023-04-24T02:40:55;11.23;;;10.35;;
787;SDS011;16074;42.708;23.312;2023-04-24T02:43:25;11.10;;;10.07;;
787;SDS011;16074;42.708;23.312;2023-04-24T02:45:53;11.32;;;10.27;;
787;SDS011;16074;42.708;23.312;2023-04-24T02:48:22;11.50;;;10.48;;
787;SDS011;16074;42.708;23.312;2023-04-24T02:50:52;11.43;;;10.43;;
787;SDS011;16074;42.708;23.312;2023-04-24T02:53:20;12.05;;;10.68;;
787;SDS011;16074;42.708;23.312;2023-04-24T02:55:49;10.43;;;9.43;;
787;SDS011;16074;42.708;23.312;2023-04-24T02:58:17;12.00;;;10.65;;
787;SDS011;16074;42.708;23.312;2023-04-24T03:00:47;10.80;;;9.80;;
787;SDS011;16074;42.708;23.312;2023-04-24T03:03:15;11.13;;;10.10;;
787;SDS011;16074;42.708;23.312;2023-04-24T03:05:44;12.13;;;10.93;;
787;SDS011;16074;42.708;23.312;2023-04-24T03:08:13;12.63;;;11.43;;
787;SDS011;16074;42.708;23.312;2023-04-24T03:10:42;11.98;;;10.95;;
787;SDS011;16074;42.708;23.312;2023-04-24T03:13:14;13.77;;;12.43;;
787;SDS011;16074;42.708;23.312;2023-04-24T03:15:43;15.30;;;12.43;;
787;SDS011;16074;42.708;23.312;2023-04-24T03:18:11;13.40;;;12.20;;
787;SDS011;16074;42.708;23.312;2023-04-24T03:20:39;14.93;;;12.65;;
787;SDS011;16074;42.708;23.312;2023-04-24T03:23:08;19.52;;;13.23;;
787;SDS011;16074;42.708;23.312;2023-04-24T03:25:39;17.48;;;11.88;;
787;SDS011;16074;42.708;23.312;2023-04-24T03:28:10;15.15;;;13.55;;
787;SDS011;16074;42.708;23.312;2023-04-24T03:30:44;16.77;;;13.88;;
787;SDS011;16074;42.708;23.312;2023-04-24T03:33:13;15.63;;;14.13;;
787;SDS011;16074;42.708;23.312;2023-04-24T03:35:52;14.13;;;12.93;;
787;SDS011;16074;42.708;23.312;2023-04-24T03:38:21;16.23;;;14.45;;
787;SDS011;16074;42.708;23.312;2023-04-24T03:40:50;15.05;;;13.73;;
787;SDS011;16074;42.708;23.312;2023-04-24T03:43:39;17.88;;;16.27;;
787;SDS011;16074;42.708;23.312;2023-04-24T03:46:07;16.60;;;14.95;;
787;SDS011;16074;42.708;23.312;2023-04-24T03:48:43;16.73;;;15.13;;
787;SDS011;16074;42.708;23.312;2023-04-24T03:51:12;15.80;;;13.57;;
787;SDS011;16074;42.708;23.312;2023-04-24T03:53:44;15.68;;;14.18;;
787;SDS011;16074;42.708;23.312;2023-04-24T03:56:18;17.73;;;14.63;;
787;SDS011;16074;42.708;23.312;2023-04-24T03:58:47;14.55;;;13.25;;
787;SDS011;16074;42.708;23.312;2023-04-24T04:01:15;13.48;;;12.10;;
787;SDS011;16074;42.708;23.312;2023-04-24T04:03:49;15.45;;;13.40;;
787;SDS011;16074;42.708;23.312;2023-04-24T04:06:20;15.20;;;13.60;;
787;SDS011;16074;42.708;23.312;2023-04-24T04:08:51;17.33;;;13.05;;
787;SDS011;16074;42.708;23.312;2023-04-24T04:11:20;12.18;;;10.98;;
787;SDS011;16074;42.708;23.312;2023-04-24T04:13:49;17.52;;;12.82;;
787;SDS011;16074;42.708;23.312;2023-04-24T04:16:20;13.40;;;10.85;;
787;SDS011;16074;42.708;23.312;2023-04-24T04:18:53;15.15;;;12.85;;
787;SDS011;16074;42.708;23.312;2023-04-24T04:21:21;13.57;;;10.05;;
787;SDS011;16074;42.708;23.312;2023-04-24T04:23:55;11.88;;;10.63;;
787;SDS011;16074;42.708;23.312;2023-04-24T04:26:36;13.75;;;10.63;;
787;SDS011;16074;42.708;23.312;2023-04-24T04:29:07;12.45;;;10.70;;
787;SDS011;16074;42.708;23.312;2023-04-24T04:31:40;12.25;;;11.00;;
787;SDS011;16074;42.708;23.312;2023-04-24T04:34:11;12.68;;;11.57;;
787;SDS011;16074;42.708;23.312;2023-04-24T04:36:41;10.93;;;9.93;;
787;SDS011;16074;42.708;23.312;2023-04-24T04:39:25;10.98;;;9.98;;
787;SDS011;16074;42.708;23.312;2023-04-24T04:42:08;11.25;;;9.80;;
787;SDS011;16074;42.708;23.312;2023-04-24T04:44:41;10.55;;;9.73;;
787;SDS011;16074;42.708;23.312;2023-04-24T04:47:16;14.23;;;11.07;;
787;SDS011;16074;42.708;23.312;2023-04-24T04:49:45;12.02;;;9.63;;
787;SDS011;16074;42.708;23.312;2023-04-24T04:52:18;12.07;;;10.52;;
787;SDS011;16074;42.708;23.312;2023-04-24T04:54:56;17.63;;;11.75;;
787;SDS011;16074;42.708;23.312;2023-04-24T04:57:35;11.98;;;10.57;;
787;SDS011;16074;42.708;23.312;2023-04-24T05:00:04;12.88;;;11.52;;
787;SDS011;16074;42.708;23.312;2023-04-24T05:02:43;14.65;;;13.15;;
787;SDS011;16074;42.708;23.312;2023-04-24T05:05:12;16.30;;;12.82;;
787;SDS011;16074;42.708;23.312;2023-04-24T05:07:40;13.10;;;12.05;;
787;SDS011;16074;42.708;23.312;2023-04-24T05:10:09;13.38;;;12.00;;
787;SDS011;16074;42.708;23.312;2023-04-24T05:12:39;15.90;;;13.63;;
787;SDS011;16074;42.708;23.312;2023-04-24T05:15:11;15.70;;;14.10;;
787;SDS011;16074;42.708;23.312;2023-04-24T05:17:40;17.33;;;15.18;;
787;SDS011;16074;42.708;23.312;2023-04-24T05:20:09;15.98;;;14.43;;
787;SDS011;16074;42.708;23.312;2023-04-24T05:22:38;16.77;;;14.98;;
787;SDS011;16074;42.708;23.312;2023-04-24T05:25:06;17.02;;;15.15;;
787;SDS011;16074;42.708;23.312;2023-04-24T05:27:44;19.17;;;16.90;;
787;SDS011;16074;42.708;23.312;2023-04-24T05:30:15;26.08;;;18.23;;
787;SDS011;16074;42.708;23.312;2023-04-24T05:32:43;21.48;;;16.63;;
787;SDS011;16074;42.708;23.312;2023-04-24T05:35:12;17.65;;;15.95;;
787;SDS011;16074;42.708;23.312;2023-04-24T05:37:40;16.42;;;14.13;;
787;SDS011;16074;42.708;23.312;2023-04-24T05:40:10;18.75;;;14.35;;
787;SDS011;16074;42.708;23.312;2023-04-24T05:42:38;20.55;;;14.35;;
787;SDS011;16074;42.708;23.312;2023-04-24T05:45:08;16.15;;;12.35;;
787;SDS011;16074;42.708;23.312;2023-04-24T05:47:43;13.77;;;9.48;;
787;SDS011;16074;42.708;23.312;2023-04-24T05:50:11;12.65;;;11.35;;
787;SDS011;16074;42.708;23.312;2023-04-24T05:52:40;11.82;;;10.73;;
787;SDS011;16074;42.708;23.312;2023-04-24T05:55:22;13.35;;;11.35;;
787;SDS011;16074;42.708;23.312;2023-04-24T05:57:51;14.18;;;12.77;;
787;SDS011;16074;42.708;23.312;2023-04-24T06:00:21;15.88;;;12.95;;
787;SDS011;16074;42.708;23.312;2023-04-24T06:02:58;12.60;;;11.38;;
787;SDS011;16074;42.708;23.312;2023-04-24T06:05:27;11.98;;;10.85;;
787;SDS011;16074;42.708;23.312;2023-04-24T06:07:56;12.50;;;10.65;;
787;SDS011;16074;42.708;23.312;2023-04-24T06:10:28;11.00;;;9.93;;
787;SDS011;16074;42.708;23.312;2023-04-24T06:12:57;13.88;;;10.98;;
787;SDS011;16074;42.708;23.312;2023-04-24T06:15:29;12.30;;;11.10;;
787;SDS011;16074;42.708;23.312;2023-04-24T06:18:10;13.90;;;11.25;;
787;SDS011;16074;42.708;23.312;2023-04-24T06:20:40;17.00;;;10.90;;
787;SDS011;16074;42.708;23.312;2023-04-24T06:23:09;13.35;;;11.30;;
787;SDS011;16074;42.708;23.312;2023-04-24T06:25:37;14.10;;;12.68;;
787;SDS011;16074;42.708;23.312;2023-04-24T06:28:06;12.73;;;11.65;;
787;SDS011;16074;42.708;23.312;2023-04-24T06:30:36;12.77;;;11.48;;
787;SDS011;16074;42.708;23.312;2023-04-24T06:33:04;13.70;;;12.13;;
787;SDS011;16074;42.708;23.312;2023-04-24T06:35:45;14.88;;;13.38;;
787;SDS011;16074;42.708;23.312;2023-04-24T06:38:14;12.15;;;10.95;;
787;SDS011;16074;42.708;23.312;2023-04-24T06:40:43;14.68;;;13.10;;
787;SDS011;16074;42.708;23.312;2023-04-24T06:43:11;14.05;;;12.85;;
787;SDS011;16074;42.708;23.312;2023-04-24T06:45:41;12.95;;;11.85;;
787;SDS011;16074;42.708;23.312;2023-04-24T06:48:10;12.60;;;11.63;;
787;SDS011;16074;42.708;23.312;2023-04-24T06:50:38;13.02;;;11.80;;
787;SDS011;16074;42.708;23.312;2023-04-24T06:53:07;12.45;;;11.15;;
787;SDS011;16074;42.708;23.312;2023-04-24T06:55:37;12.82;;;11.50;;
787;SDS011;16074;42.708;23.312;2023-04-24T06:58:05;14.15;;;11.15;;
787;SDS011;16074;42.708;23.312;2023-04-24T07:00:34;13.18;;;11.75;;
787;SDS011;16074;42.708;23.312;2023-04-24T07:03:04;12.13;;;11.13;;
787;SDS011;16074;42.708;23.312;2023-04-24T07:05:33;13.07;;;11.87;;
787;SDS011;16074;42.708;23.312;2023-04-24T07:08:01;14.20;;;10.90;;
787;SDS011;16074;42.708;23.312;2023-04-24T07:10:30;12.57;;;11.27;;
787;SDS011;16074;42.708;23.312;2023-04-24T07:13:02;13.90;;;12.43;;
787;SDS011;16074;42.708;23.312;2023-04-24T07:15:30;13.77;;;12.50;;
787;SDS011;16074;42.708;23.312;2023-04-24T07:17:58;14.87;;;12.80;;
787;SDS011;16074;42.708;23.312;2023-04-24T07:20:32;13.87;;;12.37;;
787;SDS011;16074;42.708;23.312;2023-04-24T07:23:01;14.80;;;11.80;;
787;SDS011;16074;42.708;23.312;2023-04-24T07:25:30;12.67;;;11.37;;
787;SDS011;16074;42.708;23.312;2023-04-24T07:27:58;14.43;;;12.50;;
787;SDS011;16074;42.708;23.312;2023-04-24T07:30:26;14.80;;;12.27;;
787;SDS011;16074;42.708;23.312;2023-04-24T07:32:55;14.10;;;12.83;;
787;SDS011;16074;42.708;23.312;2023-04-24T07:35:24;14.40;;;13.10;;
787;SDS011;16074;42.708;23.312;2023-04-24T07:37:54;13.70;;;12.33;;
787;SDS011;16074;42.708;23.312;2023-04-24T07:40:22;13.83;;;12.43;;
787;SDS011;16074;42.708;23.312;2023-04-24T07:42:51;12.03;;;10.93;;
787;SDS011;16074;42.708;23.312;2023-04-24T07:45:19;13.90;;;12.70;;
787;SDS011;16074;42.708;23.312;2023-04-24T07:47:48;13.67;;;12.27;;
787;SDS011;16074;42.708;23.312;2023-04-24T07:50:16;12.67;;;11.50;;
787;SDS011;16074;42.708;23.312;2023-04-24T07:52:44;13.10;;;11.90;;
787;SDS011;16074;42.708;23.312;2023-04-24T07:55:14;11.70;;;10.70;;
787;SDS011;16074;42.708;23.312;2023-04-24T07:57:42;10.70;;;9.80;;
787;SDS011;16074;42.708;23.312;2023-04-24T08:00:11;12.00;;;11.10;;
787;SDS011;16074;42.708;23.312;2023-04-24T08:02:40;11.67;;;10.50;;
787;SDS011;16074;42.708;23.312;2023-04-24T08:05:08;13.13;;;10.33;;
787;SDS011;16074;42.708;23.312;2023-04-24T08:07:37;12.57;;;11.40;;
787;SDS011;16074;42.708;23.312;2023-04-24T08:10:06;12.40;;;10.83;;
787;SDS011;16074;42.708;23.312;2023-04-24T08:12:36;10.13;;;9.27;;
787;SDS011;16074;42.708;23.312;2023-04-24T08:15:05;13.43;;;10.30;;
787;SDS011;16074;42.708;23.312;2023-04-24T08:17:34;9.87;;;8.97;;
787;SDS011;16074;42.708;23.312;2023-04-24T08:20:03;11.47;;;10.60;;
787;SDS011;16074;42.708;23.312;2023-04-24T08:22:32;10.93;;;9.83;;
787;SDS011;16074;42.708;23.312;2023-04-24T08:25:00;12.27;;;11.27;;
787;SDS011;16074;42.708;23.312;2023-04-24T08:27:28;12.00;;;10.80;;
787;SDS011;16074;42.708;23.312;2023-04-24T08:29:58;11.90;;;10.77;;
787;SDS011;16074;42.708;23.312;2023-04-24T08:32:26;11.07;;;10.17;;
787;SDS011;16074;42.708;23.312;2023-04-24T08:34:55;12.17;;;11.07;;
787;SDS011;16074;42.708;23.312;2023-04-24T08:37:25;12.63;;;10.47;;
787;SDS011;16074;42.708;23.312;2023-04-24T08:39:54;10.57;;;9.77;;
787;SDS011;16074;42.708;23.312;2023-04-24T08:42:23;11.33;;;10.57;;
787;SDS011;16074;42.708;23.312;2023-04-24T08:44:51;11.90;;;10.90;;
787;SDS011;16074;42.708;23.312;2023-04-24T08:47:21;11.90;;;10.70;;
787;SDS011;16074;42.708;23.312;2023-04-24T08:49:51;11.07;;;10.03;;
787;SDS011;16074;42.708;23.312;2023-04-24T08:52:20;11.20;;;10.27;;
787;SDS011;16074;42.708;23.312;2023-04-24T08:54:49;11.13;;;10.00;;
787;SDS011;16074;42.708;23.312;2023-04-24T08:57:17;11.77;;;10.77;;
787;SDS011;16074;42.708;23.312;2023-04-24T08:59:46;15.77;;;10.10;;
787;SDS011;16074;42.708;23.312;2023-04-24T09:02:15;11.07;;;9.33;;
787;SDS011;16074;42.708;23.312;2023-04-24T09:04:46;10.57;;;9.67;;
787;SDS011;16074;42.708;23.312;2023-04-24T09:07:16;11.50;;;10.30;;
787;SDS011;16074;42.708;23.312;2023-04-24T09:09:45;11.67;;;10.57;;
787;SDS011;16074;42.708;23.312;2023-04-24T09:12:15;15.20;;;10.73;;
787;SDS011;16074;42.708;23.312;2023-04-24T09:14:44;12.67;;;11.50;;
787;SDS011;16074;42.708;23.312;2023-04-24T09:17:12;11.00;;;10.20;;
787;SDS011;16074;42.708;23.312;2023-04-24T09:19:41;11.07;;;10.17;;
787;SDS011;16074;42.708;23.312;2023-04-24T09:22:11;11.07;;;10.13;;
787;SDS011;16074;42.708;23.312;2023-04-24T09:24:40;9.47;;;8.67;;
787;SDS011;16074;42.708;23.312;2023-04-24T09:27:08;10.23;;;9.33;;
787;SDS011;16074;42.708;23.312;2023-04-24T09:29:46;9.23;;;8.43;;
787;SDS011;16074;42.708;23.312;2023-04-24T09:32:22;9.90;;;9.00;;
787;SDS011;16074;42.708;23.312;2023-04-24T09:35:04;10.83;;;8.70;;
787;SDS011;16074;42.708;23.312;2023-04-24T09:37:37;10.43;;;9.50;;
787;SDS011;16074;42.708;23.312;2023-04-24T09:40:13;11.20;;;10.03;;
787;SDS011;16074;42.708;23.312;2023-04-24T09:42:45;10.30;;;9.33;;
787;SDS011;16074;42.708;23.312;2023-04-24T09:45:19;10.20;;;9.20;;
787;SDS011;16074;42.708;23.312;2023-04-24T09:47:51;10.17;;;9.37;;
787;SDS011;16074;42.708;23.312;2023-04-24T09:50:20;10.77;;;9.67;;
787;SDS011;16074;42.708;23.312;2023-04-24T09:52:57;9.20;;;8.50;;
787;SDS011;16074;42.708;23.312;2023-04-24T09:55:26;14.60;;;9.63;;
787;SDS011;16074;42.708;23.312;2023-04-24T09:57:55;10.30;;;9.60;;
787;SDS011;16074;42.708;23.312;2023-04-24T10:00:27;9.27;;;8.57;;
787;SDS011;16074;42.708;23.312;2023-04-24T10:02:57;10.13;;;9.27;;
787;SDS011;16074;42.708;23.312;2023-04-24T10:05:29;8.93;;;8.33;;
787;SDS011;16074;42.708;23.312;2023-04-24T10:08:04;8.60;;;8.00;;
787;SDS011;16074;42.708;23.312;2023-04-24T10:10:33;9.13;;;8.47;;
787;SDS011;16074;42.708;23.312;2023-04-24T10:13:04;8.87;;;8.17;;
787;SDS011;16074;42.708;23.312;2023-04-24T10:15:35;9.67;;;8.90;;
787;SDS011;16074;42.708;23.312;2023-04-24T10:18:04;9.50;;;8.60;;
787;SDS011;16074;42.708;23.312;2023-04-24T10:20:34;9.00;;;8.10;;
787;SDS011;16074;42.708;23.312;2023-04-24T10:23:05;7.80;;;7.30;;
787;SDS011;16074;42.708;23.312;2023-04-24T10:25:34;8.60;;;7.90;;
787;SDS011;16074;42.708;23.312;2023-04-24T10:28:03;8.43;;;7.33;;
787;SDS011;16074;42.708;23.312;2023-04-24T10:30:35;8.47;;;7.93;;
787;SDS011;16074;42.708;23.312;2023-04-24T10:33:04;8.97;;;8.27;;
787;SDS011;16074;42.708;23.312;2023-04-24T10:35:34;8.77;;;8.07;;
787;SDS011;16074;42.708;23.312;2023-04-24T10:38:07;8.47;;;7.90;;
787;SDS011;16074;42.708;23.312;2023-04-24T10:40:39;7.60;;;7.00;;
787;SDS011;16074;42.708;23.312;2023-04-24T10:43:08;9.10;;;8.40;;
787;SDS011;16074;42.708;23.312;2023-04-24T10:45:38;8.63;;;7.90;;
787;SDS011;16074;42.708;23.312;2023-04-24T10:48:07;8.60;;;7.83;;
787;SDS011;16074;42.708;23.312;2023-04-24T10:50:44;9.23;;;8.53;;
787;SDS011;16074;42.708;23.312;2023-04-24T10:53:15;8.67;;;7.87;;
787;SDS011;16074;42.708;23.312;2023-04-24T10:55:45;9.70;;;8.80;;
787;SDS011;16074;42.708;23.312;2023-04-24T10:58:14;8.60;;;7.97;;
787;SDS011;16074;42.708;23.312;2023-04-24T11:00:48;8.87;;;8.27;;
787;SDS011;16074;42.708;23.312;2023-04-24T11:03:25;8.90;;;8.07;;
787;SDS011;16074;42.708;23.312;2023-04-24T11:05:56;8.93;;;8.20;;
787;SDS011;16074;42.708;23.312;2023-04-24T11:08:28;8.97;;;8.33;;
787;SDS011;16074;42.708;23.312;2023-04-24T11:10:59;9.67;;;8.97;;
787;SDS011;16074;42.708;23.312;2023-04-24T11:16:31;9.03;;;8.23;;
787;SDS011;16074;42.708;23.312;2023-04-24T11:19:02;10.77;;;9.37;;
787;SDS011;16074;42.708;23.312;2023-04-24T11:21:41;12.07;;;10.10;;
787;SDS011;16074;42.708;23.312;2023-04-24T11:24:31;12.23;;;10.53;;
787;SDS011;16074;42.708;23.312;2023-04-24T11:27:05;10.63;;;9.53;;
787;SDS011;16074;42.708;23.312;2023-04-24T11:29:39;11.77;;;10.57;;
787;SDS011;16074;42.708;23.312;2023-04-24T11:32:16;10.50;;;9.60;;
787;SDS011;16074;42.708;23.312;2023-04-24T11:34:47;12.90;;;11.80;;
787;SDS011;16074;42.708;23.312;2023-04-24T11:37:15;13.30;;;12.13;;
787;SDS011;16074;42.708;23.312;2023-04-24T11:39:45;12.70;;;11.45;;
787;SDS011;16074;42.708;23.312;2023-04-24T11:42:14;11.57;;;10.57;;
787;SDS011;16074;42.708;23.312;2023-04-24T11:44:43;12.10;;;11.00;;
787;SDS011;16074;42.708;23.312;2023-04-24T11:47:11;12.57;;;11.50;;
787;SDS011;16074;42.708;23.312;2023-04-24T11:49:39;10.77;;;9.87;;
787;SDS011;16074;42.708;23.312;2023-04-24T11:52:08;10.50;;;9.57;;
787;SDS011;16074;42.708;23.312;2023-04-24T11:54:37;9.10;;;8.30;;
787;SDS011;16074;42.708;23.312;2023-04-24T11:57:07;8.70;;;8.03;;
787;SDS011;16074;42.708;23.312;2023-04-24T11:59:35;7.70;;;7.20;;
787;SDS011;16074;42.708;23.312;2023-04-24T12:02:04;7.83;;;7.30;;
787;SDS011;16074;42.708;23.312;2023-04-24T12:04:39;8.50;;;7.70;;
787;SDS011;16074;42.708;23.312;2023-04-24T12:07:09;7.57;;;6.97;;
787;SDS011;16074;42.708;23.312;2023-04-24T12:09:40;7.70;;;7.07;;
787;SDS011;16074;42.708;23.312;2023-04-24T12:12:11;7.70;;;7.20;;
787;SDS011;16074;42.708;23.312;2023-04-24T12:14:44;7.83;;;7.13;;
787;SDS011;16074;42.708;23.312;2023-04-24T12:17:13;7.40;;;6.80;;
787;SDS011;16074;42.708;23.312;2023-04-24T12:19:44;8.03;;;7.33;;
787;SDS011;16074;42.708;23.312;2023-04-24T12:22:14;8.43;;;7.83;;
787;SDS011;16074;42.708;23.312;2023-04-24T12:24:55;7.60;;;7.00;;
787;SDS011;16074;42.708;23.312;2023-04-24T12:27:26;9.20;;;8.37;;
787;SDS011;16074;42.708;23.312;2023-04-24T12:29:56;9.00;;;8.20;;
787;SDS011;16074;42.708;23.312;2023-04-24T12:32:25;8.27;;;7.67;;
787;SDS011;16074;42.708;23.312;2023-04-24T12:34:54;9.07;;;7.70;;
787;SDS011;16074;42.708;23.312;2023-04-24T12:37:23;9.13;;;7.73;;
787;SDS011;16074;42.708;23.312;2023-04-24T12:39:59;10.53;;;7.83;;
787;SDS011;16074;42.708;23.312;2023-04-24T12:42:30;11.90;;;8.13;;
787;SDS011;16074;42.708;23.312;2023-04-24T12:44:59;7.10;;;6.40;;
787;SDS011;16074;42.708;23.312;2023-04-24T12:47:30;7.20;;;6.60;;
787;SDS011;16074;42.708;23.312;2023-04-24T12:49:58;7.73;;;7.03;;
787;SDS011;16074;42.708;23.312;2023-04-24T12:52:27;7.57;;;7.07;;
787;SDS011;16074;42.708;23.312;2023-04-24T12:54:57;6.63;;;6.23;;
787;SDS011;16074;42.708;23.312;2023-04-24T12:57:26;7.70;;;6.90;;
787;SDS011;16074;42.708;23.312;2023-04-24T12:59:57;7.27;;;6.77;;
787;SDS011;16074;42.708;23.312;2023-04-24T13:02:27;8.27;;;7.47;;
787;SDS011;16074;42.708;23.312;2023-04-24T13:04:57;7.60;;;7.10;;
787;SDS011;16074;42.708;23.312;2023-04-24T13:07:25;8.30;;;7.70;;
787;SDS011;16074;42.708;23.312;2023-04-24T13:09:55;8.10;;;7.37;;
787;SDS011;16074;42.708;23.312;2023-04-24T13:12:24;8.47;;;7.53;;
787;SDS011;16074;42.708;23.312;2023-04-24T13:14:53;7.87;;;7.33;;
787;SDS011;16074;42.708;23.312;2023-04-24T13:17:23;7.27;;;6.60;;
787;SDS011;16074;42.708;23.312;2023-04-24T13:19:53;8.37;;;7.57;;
787;SDS011;16074;42.708;23.312;2023-04-24T13:22:22;7.43;;;6.93;;
787;SDS011;16074;42.708;23.312;2023-04-24T13:24:50;7.33;;;6.63;;
787;SDS011;16074;42.708;23.312;2023-04-24T13:27:19;7.10;;;6.40;;
787;SDS011;16074;42.708;23.312;2023-04-24T13:29:47;7.43;;;6.93;;
787;SDS011;16074;42.708;23.312;2023-04-24T13:32:15;6.70;;;6.20;;
787;SDS011;16074;42.708;23.312;2023-04-24T13:34:46;7.50;;;7.00;;
787;SDS011;16074;42.708;23.312;2023-04-24T13:37:14;6.40;;;6.00;;
787;SDS011;16074;42.708;23.312;2023-04-24T13:39:42;8.80;;;8.00;;
787;SDS011;16074;42.708;23.312;2023-04-24T13:42:11;7.00;;;6.50;;
787;SDS011;16074;42.708;23.312;2023-04-24T13:44:39;6.83;;;6.33;;
787;SDS011;16074;42.708;23.312;2023-04-24T13:47:07;6.30;;;5.90;;
787;SDS011;16074;42.708;23.312;2023-04-24T13:49:36;6.97;;;6.53;;
787;SDS011;16074;42.708;23.312;2023-04-24T13:52:05;8.13;;;6.93;;
787;SDS011;16074;42.708;23.312;2023-04-24T13:54:34;9.40;;;8.30;;
787;SDS011;16074;42.708;23.312;2023-04-24T13:57:02;6.60;;;6.20;;
787;SDS011;16074;42.708;23.312;2023-04-24T13:59:31;7.83;;;7.33;;
787;SDS011;16074;42.708;23.312;2023-04-24T14:01:59;10.17;;;9.40;;
787;SDS011;16074;42.708;23.312;2023-04-24T14:04:27;8.80;;;7.90;;
787;SDS011;16074;42.708;23.312;2023-04-24T14:06:57;8.03;;;7.53;;
787;SDS011;16074;42.708;23.312;2023-04-24T14:09:26;8.90;;;8.03;;
787;SDS011;16074;42.708;23.312;2023-04-24T14:11:55;8.10;;;7.30;;
787;SDS011;16074;42.708;23.312;2023-04-24T14:14:23;11.13;;;8.53;;
787;SDS011;16074;42.708;23.312;2023-04-24T14:16:51;8.30;;;7.70;;
787;SDS011;16074;42.708;23.312;2023-04-24T14:19:19;8.53;;;7.73;;
787;SDS011;16074;42.708;23.312;2023-04-24T14:21:47;7.53;;;6.93;;
787;SDS011;16074;42.708;23.312;2023-04-24T14:24:16;8.00;;;6.30;;
787;SDS011;16074;42.708;23.312;2023-04-24T14:26:45;7.43;;;6.83;;
787;SDS011;16074;42.708;23.312;2023-04-24T14:29:14;6.90;;;6.50;;
787;SDS011;16074;42.708;23.312;2023-04-24T14:31:44;7.70;;;7.10;;
787;SDS011;16074;42.708;23.312;2023-04-24T14:34:13;6.87;;;6.27;;
787;SDS011;16074;42.708;23.312;2023-04-24T14:36:41;6.33;;;5.93;;
787;SDS011;16074;42.708;23.312;2023-04-24T14:39:10;7.20;;;6.60;;
787;SDS011;16074;42.708;23.312;2023-04-24T14:41:38;8.83;;;8.03;;
787;SDS011;16074;42.708;23.312;2023-04-24T14:44:08;7.00;;;6.40;;
787;SDS011;16074;42.708;23.312;2023-04-24T14:46:37;7.80;;;7.20;;
787;SDS011;16074;42.708;23.312;2023-04-24T14:49:05;17.57;;;15.80;;
787;SDS011;16074;42.708;23.312;2023-04-24T14:51:36;25.00;;;22.40;;
787;SDS011;16074;42.708;23.312;2023-04-24T14:54:04;7.67;;;6.67;;
787;SDS011;16074;42.708;23.312;2023-04-24T14:56:32;7.47;;;6.97;;
787;SDS011;16074;42.708;23.312;2023-04-24T14:59:01;9.60;;;7.20;;
787;SDS011;16074;42.708;23.312;2023-04-24T15:01:31;9.60;;;7.90;;
787;SDS011;16074;42.708;23.312;2023-04-24T15:04:00;7.57;;;6.87;;
787;SDS011;16074;42.708;23.312;2023-04-24T15:06:29;7.20;;;6.60;;
787;SDS011;16074;42.708;23.312;2023-04-24T15:08:58;7.87;;;7.20;;